createdAt,value
2019-02-18T00:01:45.773Z,97214.75
2019-02-18T00:04:14.516Z,97212.23
2019-02-18T00:07:02.426Z,97212.03
2019-02-18T00:09:31.062Z,97215.22
2019-02-18T00:11:59.796Z,97216.75
2019-02-18T00:14:28.594Z,97207.34
2019-02-18T00:17:16.486Z,97206.86
2019-02-18T00:20:04.387Z,97210.25
2019-02-18T00:22:52.266Z,97208.78
2019-02-18T00:25:20.911Z,97207.09
2019-02-18T00:27:49.577Z,97207.55
2019-02-18T00:30:18.220Z,97204.17
2019-02-18T00:33:06.206Z,97206.95
2019-02-18T00:35:34.817Z,97202.62
2019-02-18T00:38:22.679Z,97208.94
2019-02-18T00:40:51.361Z,97211.61
2019-02-18T00:43:39.258Z,97205.50
2019-02-18T00:46:07.954Z,97205.63
2019-02-18T00:48:55.850Z,97203.27
2019-02-18T00:51:43.731Z,97210.23
2019-02-18T00:54:12.399Z,97202.56
2019-02-18T00:56:41.101Z,97198.41
2019-02-18T00:59:28.883Z,97195.77
2019-02-18T01:04:31.783Z,97197.61
2019-02-18T01:07:00.472Z,97194.52
2019-02-18T01:09:29.193Z,97200.20
2019-02-18T01:12:17.047Z,97195.52
2019-02-18T01:15:04.862Z,97196.14
2019-02-18T01:17:33.608Z,97193.84
2019-02-18T01:20:02.296Z,97199.84
2019-02-18T01:22:30.986Z,97199.56
2019-02-18T01:25:18.832Z,97199.51
2019-02-18T01:28:06.713Z,97202.12
2019-02-18T01:30:35.402Z,97199.25
2019-02-18T01:33:23.352Z,97200.34
2019-02-18T01:36:11.193Z,97198.84
2019-02-18T01:38:39.943Z,97192.88
2019-02-18T01:41:08.583Z,97190.42
2019-02-18T01:43:37.222Z,97184.74
2019-02-18T01:46:05.917Z,97184.86
2019-02-18T01:48:34.733Z,97184.38
2019-02-18T01:51:22.512Z,97185.06
2019-02-18T01:53:51.196Z,97181.56
2019-02-18T01:56:39.059Z,97179.03
2019-02-18T01:59:07.747Z,97178.05
2019-02-18T02:01:36.516Z,97183.32
2019-02-18T02:04:05.215Z,97173.75
2019-02-18T02:06:53.281Z,97179.30
2019-02-18T02:09:41.083Z,97181.94
2019-02-18T02:12:09.834Z,97168.17
2019-02-18T02:14:38.491Z,97178.03
2019-02-18T02:17:26.366Z,97177.62
2019-02-18T02:19:54.987Z,97175.39
2019-02-18T02:22:42.859Z,97172.55
2019-02-18T02:25:11.790Z,97175.78
2019-02-18T02:27:59.728Z,97171.40
2019-02-18T02:30:47.560Z,97162.54
2019-02-18T02:33:35.429Z,97166.83
2019-02-18T02:36:04.116Z,97170.59
2019-02-18T02:38:32.910Z,97167.36
2019-02-18T02:41:20.720Z,97166.88
2019-02-18T02:44:08.605Z,97176.23
2019-02-18T02:46:56.467Z,97170.97
2019-02-18T02:49:25.064Z,97170.75
2019-02-18T02:52:12.946Z,97170.83
2019-02-18T02:55:00.810Z,97170.31
2019-02-18T02:57:29.446Z,97169.32
2019-02-18T03:00:17.248Z,97161.97
2019-02-18T03:02:45.908Z,97159.28
2019-02-18T03:05:33.671Z,97162.98
2019-02-18T03:08:02.353Z,97161.80
2019-02-18T03:10:31.013Z,97154.09
2019-02-18T03:12:59.710Z,97160.45
2019-02-18T03:15:28.270Z,97158.73
2019-02-18T03:17:56.940Z,97161.27
2019-02-18T03:20:25.629Z,97158.73
2019-02-18T03:22:54.145Z,97158.47
2019-02-18T03:26:02.662Z,97153.31
2019-02-18T03:29:09.755Z,97155.64
2019-02-18T03:31:57.662Z,97154.88
2019-02-18T03:35:06.076Z,97153.38
2019-02-18T03:37:54.012Z,97157.20
2019-02-18T03:40:41.832Z,97154.31
2019-02-18T03:43:10.482Z,97149.44
2019-02-18T03:45:58.441Z,97151.91
2019-02-18T03:48:46.184Z,97153.52
2019-02-18T03:51:14.830Z,97153.48
2019-02-18T03:54:02.706Z,97152.46
2019-02-18T03:56:50.552Z,97152.72
2019-02-18T03:59:19.232Z,97156.61
2019-02-18T04:01:47.893Z,97150.17
2019-02-18T04:04:35.719Z,97163.89
2019-02-18T04:07:04.377Z,97160.91
2019-02-18T04:09:32.969Z,97164.54
2019-02-18T04:12:21.081Z,97167.16
2019-02-18T04:14:51.361Z,97164.89
2019-02-18T04:17:19.983Z,97164.52
2019-02-18T04:22:55.689Z,97160.45
2019-02-18T04:25:24.351Z,97163.03
2019-02-18T04:27:52.972Z,97159.81
2019-02-18T04:30:40.856Z,97158.22
2019-02-18T04:33:09.512Z,97157.87
2019-02-18T04:35:38.156Z,97160.28
2019-02-18T04:38:26.095Z,97153.88
2019-02-18T04:40:54.777Z,97147.19
2019-02-18T04:43:42.830Z,97146.16
2019-02-18T04:46:11.440Z,97146.19
2019-02-18T04:48:59.309Z,97149.64
2019-02-18T04:51:27.957Z,97158.17
2019-02-18T04:54:15.863Z,97156.53
2019-02-18T04:56:44.480Z,97154.16
2019-02-18T05:02:20.117Z,97150.84
2019-02-18T05:05:28.650Z,97152.45
2019-02-18T05:07:57.270Z,97151.73
2019-02-18T05:10:45.341Z,97149.23
2019-02-18T05:13:14.025Z,97150.00
2019-02-18T05:16:02.051Z,97145.44
2019-02-18T05:18:49.989Z,97148.80
2019-02-18T05:21:18.673Z,97146.25
2019-02-18T05:23:47.230Z,97149.03
2019-02-18T05:28:59.191Z,97149.84
2019-02-18T05:31:27.772Z,97142.51
2019-02-18T05:33:56.404Z,97145.98
2019-02-18T05:36:25.087Z,97147.05
2019-02-18T05:38:53.782Z,97142.88
2019-02-18T05:41:22.417Z,97146.93
2019-02-18T05:43:51.029Z,97153.45
2019-02-18T05:46:19.791Z,97152.95
2019-02-18T05:48:48.464Z,97152.88
2019-02-18T05:51:17.117Z,97145.28
2019-02-18T05:53:45.909Z,97143.30
2019-02-18T05:56:14.760Z,97148.52
2019-02-18T05:58:43.425Z,97141.30
2019-02-18T06:01:12.089Z,97146.42
2019-02-18T06:03:40.788Z,97140.86
2019-02-18T06:06:09.385Z,97134.91
2019-02-18T06:08:38.154Z,97142.97
2019-02-18T06:11:06.821Z,97143.08
2019-02-18T06:13:35.428Z,97138.96
2019-02-18T06:16:04.028Z,97138.83
2019-02-18T06:18:32.707Z,97139.77
2019-02-18T06:21:01.386Z,97141.61
2019-02-18T06:23:49.293Z,97141.88
2019-02-18T06:26:37.041Z,97141.95
2019-02-18T06:29:05.610Z,97150.05
2019-02-18T06:31:53.427Z,97154.25
2019-02-18T06:34:41.261Z,97149.66
2019-02-18T06:40:02.999Z,97154.72
2019-02-18T06:42:52.276Z,97156.67
2019-02-18T06:45:40.047Z,97163.62
2019-02-18T06:48:27.882Z,97160.00
2019-02-18T06:50:56.584Z,97159.65
2019-02-18T06:53:25.282Z,97158.14
2019-02-18T06:55:53.925Z,97163.37
2019-02-18T07:04:15.766Z,97167.83
2019-02-18T07:07:03.506Z,97176.16
2019-02-18T07:12:30.275Z,97181.30
2019-02-18T07:15:18.129Z,97181.03
2019-02-18T07:17:46.930Z,97177.41
2019-02-18T07:20:15.626Z,97176.36
2019-02-18T07:22:44.297Z,97174.52
2019-02-18T07:25:12.976Z,97173.48
2019-02-18T07:27:41.633Z,97167.75
2019-02-18T07:30:50.107Z,97163.60
2019-02-18T07:33:18.689Z,97163.89
2019-02-18T07:35:47.300Z,97160.09
2019-02-18T07:38:15.992Z,97164.39
2019-02-18T07:40:44.702Z,97159.50
2019-02-18T07:43:13.367Z,97159.31
2019-02-18T07:46:01.238Z,97160.67
2019-02-18T07:48:29.962Z,97162.00
2019-02-18T07:50:58.667Z,97159.84
2019-02-18T07:53:27.377Z,97151.23
2019-02-18T07:55:56.058Z,97155.80
2019-02-18T07:58:24.756Z,97160.55
2019-02-18T08:00:53.397Z,97154.05
2019-02-18T08:03:22.076Z,97161.34
2019-02-18T08:05:50.895Z,97158.58
2019-02-18T08:08:38.759Z,97154.27
2019-02-18T08:11:07.432Z,97154.55
2019-02-18T08:13:55.342Z,97152.33
2019-02-18T08:16:43.239Z,97151.98
2019-02-18T08:19:11.887Z,97145.86
2019-02-18T08:21:40.605Z,97145.52
2019-02-18T08:24:09.243Z,97145.38
2019-02-18T08:26:38.007Z,97148.19
2019-02-18T08:29:06.841Z,97152.24
2019-02-18T08:31:35.370Z,97151.82
2019-02-18T08:34:04.041Z,97155.92
2019-02-18T08:36:32.699Z,97145.98
2019-02-18T08:39:01.291Z,97156.35
2019-02-18T08:41:49.236Z,97152.60
2019-02-18T08:44:17.922Z,97152.53
2019-02-18T08:47:05.737Z,97145.98
2019-02-18T08:49:34.418Z,97152.05
2019-02-18T08:52:03.060Z,97151.36
2019-02-18T08:54:31.683Z,97150.81
2019-02-18T08:57:19.587Z,97152.88
2019-02-18T09:02:22.854Z,97139.58
2019-02-18T09:04:51.360Z,97135.89
2019-02-18T09:09:55.781Z,97137.30
2019-02-18T09:12:24.529Z,97133.81
2019-02-18T09:14:53.114Z,97137.13
2019-02-18T09:17:21.807Z,97129.23
2019-02-18T09:19:50.448Z,97121.30
2019-02-18T09:22:38.267Z,97124.31
2019-02-18T09:25:46.703Z,97123.05
2019-02-18T09:28:15.471Z,97116.73
2019-02-18T09:31:03.257Z,97118.92
2019-02-18T09:33:51.063Z,97122.53
2019-02-18T09:36:21.418Z,97117.48
2019-02-18T09:39:09.296Z,97115.81
2019-02-18T09:41:57.191Z,97120.19
2019-02-18T09:44:25.882Z,97114.91
2019-02-18T09:46:54.539Z,97115.09
2019-02-18T09:49:23.252Z,97108.92
2019-02-18T09:52:11.104Z,97107.00
2019-02-18T09:54:58.817Z,97107.80
2019-02-18T09:57:27.393Z,97099.39
2019-02-18T09:59:56.111Z,97103.16
2019-02-18T10:02:24.755Z,97090.94
2019-02-18T10:04:53.469Z,97088.45
2019-02-18T10:07:22.113Z,97084.92
2019-02-18T10:09:50.786Z,97086.78
2019-02-18T10:12:38.667Z,97087.50
2019-02-18T10:15:47.139Z,97080.86
2019-02-18T10:18:15.821Z,97078.78
2019-02-18T10:20:44.551Z,97071.83
2019-02-18T10:23:13.237Z,97076.22
2019-02-18T10:25:41.905Z,97070.74
2019-02-18T10:28:10.588Z,97071.52
2019-02-18T10:30:39.231Z,97065.88
2019-02-18T10:33:07.943Z,97066.36
2019-02-18T10:35:36.641Z,97068.06
2019-02-18T10:38:24.593Z,97069.55
2019-02-18T10:41:12.503Z,97065.63
2019-02-18T10:43:41.156Z,97062.83
2019-02-18T10:46:09.821Z,97058.56
2019-02-18T10:48:38.528Z,97052.09
2019-02-18T10:51:07.112Z,97051.42
2019-02-18T10:53:35.745Z,97049.23
2019-02-18T10:56:04.429Z,97040.47
2019-02-18T10:58:33.085Z,97040.55
2019-02-18T11:01:03.488Z,97025.14
2019-02-18T11:03:32.159Z,97033.70
2019-02-18T11:06:19.972Z,97028.76
2019-02-18T11:08:48.641Z,97024.36
2019-02-18T11:11:17.399Z,97019.48
2019-02-18T11:13:46.094Z,97014.36
2019-02-18T11:16:14.864Z,97015.42
2019-02-18T11:18:43.557Z,97008.72
2019-02-18T11:21:13.971Z,97004.76
2019-02-18T11:24:01.875Z,97001.20
2019-02-18T11:26:30.640Z,96999.96
2019-02-18T11:28:59.317Z,96992.98
2019-02-18T11:31:29.715Z,96992.20
2019-02-18T11:33:58.500Z,96989.52
2019-02-18T11:36:27.156Z,96986.20
2019-02-18T11:38:55.816Z,96980.50
2019-02-18T11:41:43.952Z,96981.77
2019-02-18T11:44:12.714Z,96971.04
2019-02-18T11:47:00.735Z,96973.97
2019-02-18T11:49:48.521Z,96965.35
2019-02-18T11:52:17.220Z,96968.72
2019-02-18T11:55:05.137Z,96959.70
2019-02-18T11:57:33.830Z,96955.09
2019-02-18T12:00:44.081Z,96954.92
2019-02-18T12:03:32.007Z,96948.75
2019-02-18T12:06:00.752Z,96951.61
2019-02-18T12:08:48.577Z,96943.86
2019-02-18T12:11:17.286Z,96943.68
2019-02-18T12:13:46.259Z,96938.47
2019-02-18T12:16:14.915Z,96933.19
2019-02-18T12:21:37.221Z,96932.62
2019-02-18T12:24:05.927Z,96926.40
2019-02-18T12:26:36.304Z,96921.41
2019-02-18T12:29:05.003Z,96918.39
2019-02-18T12:31:33.675Z,96914.70
2019-02-18T12:34:02.381Z,96908.48
2019-02-18T12:36:50.280Z,96903.28
2019-02-18T12:39:18.950Z,96903.89
2019-02-18T12:41:49.008Z,96898.83
2019-02-18T12:44:18.089Z,96889.30
2019-02-18T12:47:06.348Z,96892.47
2019-02-18T12:49:34.949Z,96893.06
2019-02-18T12:52:22.978Z,96888.19
2019-02-18T12:54:51.805Z,96881.37
2019-02-18T12:57:20.442Z,96886.68
2019-02-18T12:59:49.163Z,96884.88
2019-02-18T13:02:19.574Z,96875.16
2019-02-18T13:04:48.225Z,96869.25
2019-02-18T13:07:16.943Z,96867.67
2019-02-18T13:09:45.528Z,96867.27
2019-02-18T13:12:14.283Z,96866.29
2019-02-18T13:14:42.924Z,96859.42
2019-02-18T13:17:11.795Z,96858.70
2019-02-18T13:19:42.147Z,96848.71
2019-02-18T13:24:45.059Z,96845.08
2019-02-18T13:27:13.773Z,96847.84
2019-02-18T13:29:42.509Z,96843.17
2019-02-18T13:32:30.371Z,96837.81
2019-02-18T13:34:59.178Z,96837.08
2019-02-18T13:37:27.808Z,96834.97
2019-02-18T13:39:56.487Z,96833.53
2019-02-18T13:42:25.136Z,96826.69
2019-02-18T13:47:33.902Z,96827.12
2019-02-18T13:50:02.587Z,96825.03
2019-02-18T13:52:31.234Z,96828.56
2019-02-18T13:55:01.683Z,96824.88
2019-02-18T13:57:30.343Z,96826.23
2019-02-18T14:00:00.738Z,96823.30
2019-02-18T14:02:29.427Z,96824.00
2019-02-18T14:05:17.369Z,96813.41
2019-02-18T14:07:46.057Z,96814.91
2019-02-18T14:10:54.457Z,96817.21
2019-02-18T14:13:23.143Z,96815.07
2019-02-18T14:15:51.781Z,96822.37
2019-02-18T14:18:22.174Z,96815.91
2019-02-18T14:20:50.884Z,96818.84
2019-02-18T14:23:19.585Z,96818.39
2019-02-18T14:25:48.321Z,96819.39
2019-02-18T14:28:16.950Z,96815.29
2019-02-18T14:30:45.638Z,96813.95
2019-02-18T14:33:16.036Z,96810.13
2019-02-18T14:35:44.732Z,96806.02
2019-02-18T14:38:13.361Z,96809.16
2019-02-18T14:40:42.024Z,96803.13
2019-02-18T14:43:29.861Z,96802.73
2019-02-18T14:45:58.504Z,96802.64
2019-02-18T14:48:27.187Z,96803.84
2019-02-18T14:50:56.959Z,96797.60
2019-02-18T14:53:26.413Z,96798.14
2019-02-18T14:58:49.882Z,96794.30
2019-02-18T15:01:18.667Z,96798.27
2019-02-18T15:03:47.408Z,96797.88
2019-02-18T15:06:35.263Z,96799.33
2019-02-18T15:09:24.491Z,96796.17
2019-02-18T15:11:53.278Z,96795.53
2019-02-18T15:14:21.932Z,96789.78
2019-02-18T15:16:52.275Z,96787.91
2019-02-18T15:19:20.966Z,96786.95
2019-02-18T15:21:49.620Z,96780.79
2019-02-18T15:24:18.175Z,96780.25
2019-02-18T15:26:46.875Z,96779.09
2019-02-18T15:29:15.600Z,96779.20
2019-02-18T15:31:44.271Z,96774.27
2019-02-18T15:34:12.938Z,96782.25
2019-02-18T15:37:00.768Z,96779.34
2019-02-18T15:39:29.479Z,96780.98
2019-02-18T15:41:58.114Z,96772.55
2019-02-18T15:44:28.487Z,96779.73
2019-02-18T15:47:16.400Z,96784.05
2019-02-18T15:50:24.986Z,96779.03
2019-02-18T15:52:53.630Z,96779.09
2019-02-18T15:55:22.392Z,96774.63
2019-02-18T15:58:10.187Z,96780.14
2019-02-18T16:03:12.557Z,96777.42
2019-02-18T16:06:00.395Z,96776.91
2019-02-18T16:08:29.150Z,96772.05
2019-02-18T16:10:57.837Z,96768.00
2019-02-18T16:13:26.447Z,96765.44
2019-02-18T16:15:55.235Z,96761.47
2019-02-18T16:18:23.901Z,96762.16
2019-02-18T16:20:52.583Z,96759.34
2019-02-18T16:23:21.251Z,96762.11
2019-02-18T16:25:51.651Z,96761.72
2019-02-18T16:28:20.350Z,96761.08
2019-02-18T16:30:49.090Z,96766.80
2019-02-18T16:33:17.778Z,96765.03
2019-02-18T16:35:46.433Z,96764.05
2019-02-18T16:38:15.203Z,96760.07
2019-02-18T16:41:23.711Z,96765.27
2019-02-18T16:44:11.700Z,96758.60
2019-02-18T16:46:40.782Z,96764.72
2019-02-18T16:51:46.375Z,96760.84
2019-02-18T16:54:34.296Z,96764.84
2019-02-18T16:57:02.996Z,96773.25
2019-02-18T16:59:31.637Z,96772.57
2019-02-18T17:02:00.332Z,96773.95
2019-02-18T17:04:28.948Z,96777.41
2019-02-18T17:07:16.831Z,96775.16
2019-02-18T17:09:45.550Z,96772.06
2019-02-18T17:12:14.203Z,96770.28
2019-02-18T17:14:50.519Z,96771.63
2019-02-18T17:17:19.300Z,96772.70
2019-02-18T17:19:47.968Z,96769.84
2019-02-18T17:22:16.752Z,96771.40
2019-02-18T17:24:45.457Z,96771.64
2019-02-18T17:27:14.208Z,96766.73
2019-02-18T17:30:02.121Z,96762.89
2019-02-18T17:32:30.791Z,96766.70
2019-02-18T17:34:59.440Z,96768.20
2019-02-18T17:37:28.140Z,96768.45
2019-02-18T17:39:56.974Z,96762.77
2019-02-18T17:42:25.670Z,96766.55
2019-02-18T17:48:02.521Z,96766.78
2019-02-18T17:50:31.292Z,96771.48
2019-02-18T17:52:59.918Z,96776.78
2019-02-18T17:55:28.639Z,96778.28
2019-02-18T17:57:57.359Z,96771.48
2019-02-18T18:03:01.400Z,96783.01
2019-02-18T18:05:30.156Z,96783.87
2019-02-18T18:07:59.127Z,96783.25
2019-02-18T18:10:27.813Z,96781.65
2019-02-18T18:12:56.543Z,96783.20
2019-02-18T18:15:25.208Z,96787.47
2019-02-18T18:17:53.918Z,96784.53
2019-02-18T18:23:10.614Z,96788.33
2019-02-18T18:25:39.304Z,96783.88
2019-02-18T18:28:07.944Z,96781.59
2019-02-18T18:30:36.626Z,96780.65
2019-02-18T18:33:05.492Z,96782.15
2019-02-18T18:35:35.882Z,96775.46
2019-02-18T18:38:04.622Z,96777.13
2019-02-18T18:40:33.300Z,96777.27
2019-02-18T18:43:01.959Z,96777.19
2019-02-18T18:45:30.601Z,96772.02
2019-02-18T18:47:59.230Z,96777.87
2019-02-18T18:50:29.657Z,96775.88
2019-02-18T18:52:58.435Z,96779.33
2019-02-18T18:55:46.340Z,96781.58
2019-02-18T18:58:34.367Z,96775.33
2019-02-18T19:01:22.262Z,96782.77
2019-02-18T19:04:10.087Z,96783.94
2019-02-18T19:06:38.780Z,96787.23
2019-02-18T19:09:07.608Z,96782.39
2019-02-18T19:11:36.636Z,96784.30
2019-02-18T19:14:05.936Z,96790.16
2019-02-18T19:16:34.673Z,96783.38
2019-02-18T19:19:05.038Z,96783.58
2019-02-18T19:21:33.686Z,96782.57
2019-02-18T19:24:03.605Z,96785.03
2019-02-18T19:26:32.838Z,96787.18
2019-02-18T19:29:01.515Z,96789.37
2019-02-18T19:31:30.118Z,96792.35
2019-02-18T19:34:00.542Z,96793.63
2019-02-18T19:36:29.258Z,96799.59
2019-02-18T19:39:19.419Z,96793.83
2019-02-18T19:41:48.093Z,96791.70
2019-02-18T19:44:38.101Z,96792.07
2019-02-18T19:47:27.600Z,96790.28
2019-02-18T19:49:57.995Z,96783.24
2019-02-18T19:52:26.741Z,96788.73
2019-02-18T19:57:50.366Z,96791.45
2019-02-18T20:03:09.277Z,96790.34
2019-02-18T20:05:57.164Z,96790.80
2019-02-18T20:08:25.854Z,96789.69
2019-02-18T20:11:15.157Z,96788.27
2019-02-18T20:14:03.085Z,96796.07
2019-02-18T20:16:51.110Z,96793.88
2019-02-18T20:19:19.812Z,96790.05
2019-02-18T20:21:48.469Z,96793.70
2019-02-18T20:24:38.315Z,96796.19
2019-02-18T20:27:46.855Z,96792.42
2019-02-18T20:30:55.313Z,96790.00
2019-02-18T20:33:24.048Z,96793.20
2019-02-18T20:35:52.758Z,96791.62
2019-02-18T20:38:40.728Z,96790.64
2019-02-18T20:41:28.846Z,96793.37
2019-02-18T20:44:18.526Z,96792.37
2019-02-18T20:47:06.657Z,96791.13
2019-02-18T20:49:37.138Z,96792.99
2019-02-18T20:52:24.994Z,96801.02
2019-02-18T20:55:13.705Z,96795.94
2019-02-18T20:58:01.524Z,96788.00
2019-02-18T21:00:30.170Z,96789.23
2019-02-18T21:03:18.069Z,96789.79
2019-02-18T21:05:46.822Z,96789.83
2019-02-18T21:08:15.476Z,96789.64
2019-02-18T21:11:03.419Z,96784.14
2019-02-18T21:13:32.046Z,96785.03
2019-02-18T21:16:00.852Z,96786.77
2019-02-18T21:18:29.553Z,96783.77
2019-02-18T21:20:58.251Z,96788.47
2019-02-18T21:23:26.945Z,96785.60
2019-02-18T21:25:55.642Z,96789.95
2019-02-18T21:28:45.190Z,96795.58
2019-02-18T21:31:33.144Z,96790.23
2019-02-18T21:34:21.214Z,96802.84
2019-02-18T21:36:49.823Z,96804.72
2019-02-18T21:39:18.547Z,96803.22
2019-02-18T21:41:47.274Z,96799.21
2019-02-18T21:44:35.153Z,96804.93
2019-02-18T21:47:03.819Z,96800.95
2019-02-18T21:49:32.521Z,96803.62
2019-02-18T21:52:20.480Z,96803.28
2019-02-18T21:55:08.491Z,96809.69
2019-02-18T21:57:37.193Z,96806.69
2019-02-18T22:00:45.695Z,96804.49
2019-02-18T22:03:14.404Z,96811.28
2019-02-18T22:06:02.411Z,96810.34
2019-02-18T22:08:50.398Z,96815.72
2019-02-18T22:11:19.036Z,96813.31
2019-02-18T22:13:47.720Z,96820.89
2019-02-18T22:16:35.671Z,96820.87
2019-02-18T22:19:06.138Z,96831.69
2019-02-18T22:21:34.917Z,96829.33
2019-02-18T22:24:03.634Z,96833.26
2019-02-18T22:26:32.430Z,96833.70
2019-02-18T22:29:01.188Z,96824.79
2019-02-18T22:31:29.901Z,96829.77
2019-02-18T22:33:58.827Z,96837.41
2019-02-18T22:36:27.660Z,96841.93
2019-02-18T22:38:56.498Z,96841.05
2019-02-18T22:41:25.175Z,96840.83
2019-02-18T22:43:53.864Z,96846.78
2019-02-18T22:49:11.857Z,96842.50
2019-02-18T22:51:40.541Z,96841.61
2019-02-18T22:54:09.245Z,96835.97
2019-02-18T22:56:37.881Z,96839.67
2019-02-18T22:59:06.521Z,96839.77
2019-02-18T23:02:15.033Z,96840.10
2019-02-18T23:04:43.682Z,96843.97
2019-02-18T23:07:12.323Z,96844.42
2019-02-18T23:09:41.014Z,96851.80
2019-02-18T23:12:11.392Z,96845.73
2019-02-18T23:14:40.078Z,96841.67
2019-02-18T23:17:08.784Z,96846.53
2019-02-18T23:19:37.439Z,96853.89
2019-02-18T23:22:06.114Z,96855.19
2019-02-18T23:24:34.756Z,96850.45
2019-02-18T23:27:03.959Z,96853.20
2019-02-18T23:32:21.557Z,96852.97
2019-02-18T23:35:09.566Z,96858.37
2019-02-18T23:37:38.194Z,96856.03
2019-02-18T23:40:06.954Z,96855.80
2019-02-18T23:48:18.429Z,96861.37
2019-02-18T23:51:06.396Z,96866.53
2019-02-18T23:53:35.091Z,96874.66
2019-02-18T23:56:03.752Z,96870.34
2019-02-18T23:58:32.395Z,96879.77
